Terminal Aerodrome Forecast
Issued by NWS

Home | Current Version | Previous Version | Text Only | Print | Product List | Glossary On
Versions: 1 2 3 4 5 6 7 8 9 10 11 12 13 14 15 16 17 18 19 20 21
000
FTUS46 KMFR 271800 AAA
TAFOTH
TAF AMD
KOTH 271841Z 2719/2818 34008KT P6SM FEW008
     FM272100 35012G18KT P6SM SKC
     FM280200 35011KT P6SM OVC005
     FM280400 35006KT 3SM BR OVC004
     FM281000 01005KT 1/2SM FG OVC002
     FM281500 01005KT 4SM BR OVC005=

USA.gov is the U.S. government's official web portal to all federal, state and local government web resources and services.